Time;durP1;ratioP1;P1;durP2;ratioP2;P2;SDS_P1;SDS_P2;PMS_P1;PMS_P2;Temp;Humidity;BMP_temperature;BMP_pressure;BME280_temperature;BME280_humidity;BME280_pressure;Samples;Min_cycle;Max_cycle;Signal;HPM_P1;HPM_P2
2023/05/01 00:00:24;;;;;;;;;;;;;;;;;;1046530;28;4030;-48
2023/05/01 00:01:14;;;;;;;;;;;;;;;;;;1045048;28;2832;-46
2023/05/01 00:01:44;;;;;;;;;;;;;;;;;;1044160;28;3900;-45
2023/05/01 00:02:15;;;;;;;;;;;;;;;;;;1046750;28;1690;-44
2023/05/01 00:02:45;;;;;;;;;;;;;;;;;;1044688;28;3992;-44
2023/05/01 00:03:16;;;;;;;;;;;;;;;;;;1045342;28;3074;-46
2023/05/01 00:03:47;;;;;;;;;;;;;;;;;;1045828;28;4121;-46
2023/05/01 00:04:17;;;;;;;;;;;;;;;;;;1046828;28;1737;-47
2023/05/01 00:04:48;;;;;;;;;;;;;;;;;;1046834;28;3721;-46
2023/05/01 00:05:18;;;;;;;;;;;;;;;;;;1044239;28;2891;-44
2023/05/01 00:05:48;;;;;;;;;;;;;;;;;;1045673;28;3607;-45
2023/05/01 00:06:18;;;;;;;;;;;;;;;;;;1045206;28;4041;-47
2023/05/01 00:06:49;;;;;;;;;;;;;;;;;;1042326;28;2207;-47
2023/05/01 00:07:19;;;;;;;;;;;;;;;;;;1041043;28;5012;-46
2023/05/01 00:07:50;;;;;;;;;;;;;;;;;;1042355;28;1432;-46
2023/05/01 00:08:20;;;;;;;;;;;;;;;;;;1042164;28;4052;-45
2023/05/01 00:08:50;;;;;;;;;;;;;;;;;;1041779;28;2350;-43
2023/05/01 00:09:20;;;;;;;;;;;;;;;;;;1042529;28;3894;-44
2023/05/01 00:09:51;;;;;;;;;;;;;;;;;;1042729;28;2108;-43
2023/05/01 00:10:21;;;;;;;;;;;;;;;;;;1042315;28;3884;-43
2023/05/01 00:10:51;;;;;;;;;;;;;;;;;;1042840;28;1703;-43
2023/05/01 00:11:23;;;;;;;;;;;;;;;;;;1040706;28;4156;-48
2023/05/01 00:11:53;;;;;;;;;;;;;;;;;;1040223;28;2995;-44
2023/05/01 00:12:24;;;;;;;;;;;;;;;;;;1039601;28;4051;-46
2023/05/01 00:12:54;;;;;;;;;;;;;;;;;;1041649;28;3022;-45
2023/05/01 00:13:25;;;;;;;;;;;;;;;;;;1040514;28;4184;-45
2023/05/01 00:13:55;;;;;;;;;;;;;;;;;;1040269;28;2561;-43
2023/05/01 00:14:27;;;;;;;;;;;;;;;;;;1042093;28;4348;-44
2023/05/01 00:14:57;;;;;;;;;;;;;;;;;;1042749;28;1680;-45
2023/05/01 00:15:27;;;;;;;;;;;;;;;;;;1042613;28;3792;-43
2023/05/01 00:15:57;;;;;;;;;;;;;;;;;;1041847;28;2807;-44
2023/05/01 00:16:28;;;;;;;;;;;;;;;;;;1041274;28;3969;-48
2023/05/01 00:16:58;;;;;;;;;;;;;;;;;;1042177;28;2805;-45
2023/05/01 00:17:29;;;;;;;;;;;;;;;;;;1041463;28;4142;-44
2023/05/01 00:18:00;;;;;;;;;;;;;;;;;;1042270;28;2370;-46
2023/05/01 00:18:30;;;;;;;;;;;;;;;;;;1041510;28;3790;-45
2023/05/01 00:19:00;;;;;;;;;;;;;;;;;;1042635;28;1798;-45
2023/05/01 00:19:31;;;;;;;;;;;;;;;;;;1041691;28;4229;-45
2023/05/01 00:20:03;;;;;;;;;;;;;;;;;;1042686;28;1867;-48
2023/05/01 00:20:34;;;;;;;;;;;;;;;;;;1042377;28;4448;-48
2023/05/01 00:21:04;;;;;;;;;;;;;;;;;;1042890;28;1790;-44
2023/05/01 00:21:34;;;;;;;;;;;;;;;;;;1040613;28;4565;-45
2023/05/01 00:22:05;;;;;;;;;;;;;;;;;;1041400;28;2740;-44
2023/05/01 00:22:35;;;;;;;;;;;;;;;;;;1040007;28;4045;-47
2023/05/01 00:23:07;;;;;;;;;;;;;;;;;;1040776;28;3000;-46
2023/05/01 00:23:37;;;;;;;;;;;;;;;;;;1042298;28;4049;-45
2023/05/01 00:24:08;;;;;;;;;;;;;;;;;;1040626;28;3084;-47
2023/05/01 00:24:38;;;;;;;;;;;;;;;;;;1041294;28;3800;-44
2023/05/01 00:25:09;;;;;;;;;;;;;;;;;;1043168;28;1740;-45
2023/05/01 00:25:39;;;;;;;;;;;;;;;;;;1041037;28;3813;-46
2023/05/01 00:26:10;;;;;;;;;;;;;;;;;;1041545;28;2905;-44
2023/05/01 00:26:40;;;;;;;;;;;;;;;;;;1041299;28;3864;-45
2023/05/01 00:27:10;;;;;;;;;;;;;;;;;;1042698;28;3055;-47
2023/05/01 00:27:40;;;;;;;;;;;;;;;;;;1041499;28;4044;-47
2023/05/01 00:28:11;;;;;;;;;;;;;;;;;;1041019;28;2800;-44
2023/05/01 00:28:41;;;;;;;;;;;;;;;;;;1041524;28;3833;-45
2023/05/01 00:29:11;;;;;;;;;;;;;;;;;;1042285;28;2956;-46
2023/05/01 00:29:42;;;;;;;;;;;;;;;;;;1041529;28;4034;-44
2023/05/01 00:30:12;;;;;;;;;;;;;;;;;;1042192;28;2794;-47
2023/05/01 00:30:44;;;;;;;;;;;;;;;;;;1041919;28;4046;-48
2023/05/01 00:31:14;;;;;;;;;;;;;;;;;;1042472;28;1753;-47
2023/05/01 00:31:45;;;;;;;;;;;;;;;;;;1041653;28;3858;-45
2023/05/01 00:32:15;;;;;;;;;;;;;;;;;;1042034;28;2945;-44
2023/05/01 00:32:46;;;;;;;;;;;;;;;;;;1042346;28;3727;-44
2023/05/01 00:33:16;;;;;;;;;;;;;;;;;;1042943;28;1858;-45
2023/05/01 00:33:46;;;;;;;;;;;;;;;;;;1042368;28;4224;-44
2023/05/01 00:34:17;;;;;;;;;;;;;;;;;;1040464;28;2938;-46
2023/05/01 00:34:48;;;;;;;;;;;;;;;;;;1042582;28;3677;-46
2023/05/01 00:35:18;;;;;;;;;;;;;;;;;;1043087;28;1674;-48
2023/05/01 00:35:50;;;;;;;;;;;;;;;;;;1046471;28;3919;-44
2023/05/01 00:36:20;;;;;;;;;;;;;;;;;;1044528;28;4163;-47
2023/05/01 00:36:51;;;;;;;;;;;;;;;;;;1047061;28;1763;-45
2023/05/01 00:37:21;;;;;;;;;;;;;;;;;;1046361;28;3842;-45
2023/05/01 00:37:51;;;;;;;;;;;;;;;;;;1047111;28;1695;-46
2023/05/01 00:38:23;;;;;;;;;;;;;;;;;;1044755;28;4239;-44
2023/05/01 00:38:53;;;;;;;;;;;;;;;;;;1045516;28;2113;-44
2023/05/01 00:39:23;;;;;;;;;;;;;;;;;;1045223;28;4031;-45
2023/05/01 00:39:53;;;;;;;;;;;;;;;;;;1046806;28;1725;-44
2023/05/01 00:40:24;;;;;;;;;;;;;;;;;;1046318;28;3926;-46
2023/05/01 00:40:55;;;;;;;;;;;;;;;;;;1046140;28;2572;-45
2023/05/01 00:41:25;;;;;;;;;;;;;;;;;;1045910;28;4026;-44
2023/05/01 00:41:55;;;;;;;;;;;;;;;;;;1045934;28;2009;-45
2023/05/01 00:42:25;;;;;;;;;;;;;;;;;;1045195;28;3888;-45
2023/05/01 00:42:56;;;;;;;;;;;;;;;;;;1047029;28;1653;-44
2023/05/01 00:43:26;;;;;;;;;;;;;;;;;;1046314;28;3845;-45
2023/05/01 00:43:57;;;;;;;;;;;;;;;;;;1045412;28;2936;-44
2023/05/01 00:44:27;;;;;;;;;;;;;;;;;;1045111;28;3838;-46
2023/05/01 00:44:57;;;;;;;;;;;;;;;;;;1044532;28;3129;-45
2023/05/01 00:45:28;;;;;;;;;;;;;;;;;;1046597;28;4049;-46
2023/05/01 00:45:58;;;;;;;;;;;;;;;;;;1044726;28;2801;-46
2023/05/01 00:46:29;;;;;;;;;;;;;;;;;;1045360;28;3906;-44
2023/05/01 00:47:01;;;;;;;;;;;;;;;;;;1045990;28;1797;-44
2023/05/01 00:47:32;;;;;;;;;;;;;;;;;;1046579;28;3798;-44
2023/05/01 00:48:03;;;;;;;;;;;;;;;;;;1046073;28;2094;-45
2023/05/01 00:48:34;;;;;;;;;;;;;;;;;;1043775;28;3952;-43
2023/05/01 00:49:04;;;;;;;;;;;;;;;;;;1047119;28;1351;-44
2023/05/01 00:49:35;;;;;;;;;;;;;;;;;;1046128;28;3948;-43
2023/05/01 00:50:06;;;;;;;;;;;;;;;;;;1045940;28;2867;-45
2023/05/01 00:50:37;;;;;;;;;;;;;;;;;;1045306;28;3949;-44
2023/05/01 00:51:07;;;;;;;;;;;;;;;;;;1047012;28;1779;-46
2023/05/01 00:51:38;;;;;;;;;;;;;;;;;;1045784;28;3853;-46
2023/05/01 00:52:11;;;;;;;;;;;;;;;;;;1044949;28;3062;-48
2023/05/01 00:52:41;;;;;;;;;;;;;;;;;;1045610;28;3913;-47
2023/05/01 00:53:12;;;;;;;;;;;;;;;;;;1045258;28;3183;-46
2023/05/01 00:53:42;;;;;;;;;;;;;;;;;;1044905;28;3791;-45
2023/05/01 00:54:12;;;;;;;;;;;;;;;;;;1044804;28;2853;-46
2023/05/01 00:54:44;;;;;;;;;;;;;;;;;;1045558;28;4040;-46
2023/05/01 00:55:15;;;;;;;;;;;;;;;;;;1046325;28;2125;-43
2023/05/01 00:55:46;;;;;;;;;;;;;;;;;;1046552;28;3777;-46
2023/05/01 00:56:16;;;;;;;;;;;;;;;;;;1043718;28;2983;-44
2023/05/01 00:56:46;;;;;;;;;;;;;;;;;;1045860;28;3803;-46
2023/05/01 00:57:20;;;;;;;;;;;;;;;;;;1046818;28;1718;-44
2023/05/01 00:57:51;;;;;;;;;;;;;;;;;;1044618;28;3851;-43
2023/05/01 00:58:22;;;;;;;;;;;;;;;;;;1046159;28;4114;-45
2023/05/01 00:58:53;;;;;;;;;;;;;;;;;;1042268;28;1668;-44
2023/05/01 00:59:23;;;;;;;;;;;;;;;;;;1037904;28;4061;-47
2023/05/01 00:59:53;;;;;;;;;;;;;;;;;;1040889;28;2936;-45
2023/05/01 01:00:24;;;;;;;;;;;;;;;;;;1039728;28;4487;-43
2023/05/01 01:00:54;;;;;;;;;;;;;;;;;;1042205;28;3250;-43
2023/05/01 01:01:25;;;;;;;;;;;;;;;;;;1039376;28;4055;-47
2023/05/01 01:01:55;;;;;;;;;;;;;;;;;;1040826;28;2866;-45
2023/05/01 01:02:26;;;;;;;;;;;;;;;;;;1040793;28;4080;-45
2023/05/01 01:02:56;;;;;;;;;;;;;;;;;;1042698;28;1717;-46
2023/05/01 01:03:26;;;;;;;;;;;;;;;;;;1041155;28;4443;-43
2023/05/01 01:03:57;;;;;;;;;;;;;;;;;;1042630;28;2988;-45
2023/05/01 01:04:30;;;;;;;;;;;;;;;;;;1041859;28;4082;-48
2023/05/01 01:05:00;;;;;;;;;;;;;;;;;;1043353;28;1850;-46
2023/05/01 01:05:34;;;;;;;;;;;;;;;;;;1041599;28;4118;-43
2023/05/01 01:06:22;;;;;;;;;;;;;;;;;;1042312;28;1572;-43
2023/05/01 01:07:20;;;;;;;;;;;;;;;;;;1045660;28;3643;-47
2023/05/01 01:07:57;;;;;;;;;;;;;;;;;;1043428;28;5066;-43
2023/05/01 01:08:29;;;;;;;;;;;;;;;;;;1046702;28;4074;-45
2023/05/01 01:09:17;;;;;;;;;;;;;;;;;;1044999;28;3015;-45
2023/05/01 01:09:47;;;;;;;;;;;;;;;;;;1045318;28;4060;-46
2023/05/01 01:10:35;;;;;;;;;;;;;;;;;;1045536;28;2989;-44
2023/05/01 01:11:20;;;;;;;;;;;;;;;;;;1046131;28;3680;-45
2023/05/01 01:12:01;;;;;;;;;;;;;;;;;;1043572;28;3873;-43
2023/05/01 01:12:37;;;;;;;;;;;;;;;;;;1042577;28;4097;-43
2023/05/01 01:13:27;;;;;;;;;;;;;;;;;;1044292;28;3090;-49
2023/05/01 01:14:02;;;;;;;;;;;;;;;;;;1041257;28;4031;-48
2023/05/01 01:14:39;;;;;;;;;;;;;;;;;;1043534;28;4378;-44
2023/05/01 01:15:14;;;;;;;;;;;;;;;;;;1045711;28;2985;-44
2023/05/01 01:16:23;;;;;;;;;;;;;;;;;;1044021;28;4021;-44
2023/05/01 01:16:56;;;;;;;;;;;;;;;;;;1035595;28;3659;-46
2023/05/01 01:17:48;;;;;;;;;;;;;;;;;;1034512;28;4441;-46
2023/05/01 01:18:25;;;;;;;;;;;;;;;;;;1036002;28;4006;-45
2023/05/01 01:19:00;;;;;;;;;;;;;;;;;;1037993;28;3149;-46
2023/05/01 01:19:40;;;;;;;;;;;;;;;;;;1039077;28;3960;-44
2023/05/01 01:20:16;;;;;;;;;;;;;;;;;;1037295;28;3299;-45
2023/05/01 01:21:04;;;;;;;;;;;;;;;;;;1037341;28;3826;-43
2023/05/01 01:21:36;;;;;;;;;;;;;;;;;;1038976;28;3949;-48
2023/05/01 01:22:11;;;;;;;;;;;;;;;;;;1038427;28;2114;-45
2023/05/01 01:22:42;;;;;;;;;;;;;;;;;;1038725;28;4643;-46
2023/05/01 01:23:36;;;;;;;;;;;;;;;;;;1045819;28;2863;-45
2023/05/01 01:24:33;;;;;;;;;;;;;;;;;;1034466;28;4042;-46
2023/05/01 01:25:19;;;;;;;;;;;;;;;;;;1046727;28;3962;-48
2023/05/01 01:25:59;;;;;;;;;;;;;;;;;;1047601;28;3841;-44
2023/05/01 01:26:48;;;;;;;;;;;;;;;;;;1044658;28;3907;-45
2023/05/01 01:27:19;;;;;;;;;;;;;;;;;;1046031;28;2967;-44
2023/05/01 01:27:53;;;;;;;;;;;;;;;;;;1047889;28;3863;-44
2023/05/01 01:28:24;;;;;;;;;;;;;;;;;;1047435;28;3994;-46
2023/05/01 01:29:15;;;;;;;;;;;;;;;;;;1047261;28;2970;-48
2023/05/01 01:30:05;;;;;;;;;;;;;;;;;;1049654;28;3947;-44
2023/05/01 01:30:44;;;;;;;;;;;;;;;;;;1045852;28;4054;-47
2023/05/01 01:31:28;;;;;;;;;;;;;;;;;;1047918;28;1724;-46
2023/05/01 01:31:58;;;;;;;;;;;;;;;;;;1046524;28;3944;-45
2023/05/01 01:32:48;;;;;;;;;;;;;;;;;;1045829;28;3818;-44
2023/05/01 01:33:21;;;;;;;;;;;;;;;;;;1043863;28;1465;-46
2023/05/01 01:34:00;;;;;;;;;;;;;;;;;;1044274;28;3675;-44
2023/05/01 01:34:46;;;;;;;;;;;;;;;;;;1047239;28;4045;-44
2023/05/01 01:35:23;;;;;;;;;;;;;;;;;;1048267;28;1588;-45
2023/05/01 01:35:56;;;;;;;;;;;;;;;;;;1042448;28;5064;-44
2023/05/01 01:36:33;;;;;;;;;;;;;;;;;;1044782;28;3847;-47
2023/05/01 01:37:10;;;;;;;;;;;;;;;;;;1048183;28;1685;-44
2023/05/01 01:38:00;;;;;;;;;;;;;;;;;;1046930;28;4173;-46
2023/05/01 01:38:42;;;;;;;;;;;;;;;;;;1047539;28;3868;-46
2023/05/01 01:39:19;;;;;;;;;;;;;;;;;;1047934;28;2623;-44
2023/05/01 01:40:05;;;;;;;;;;;;;;;;;;1047456;28;4903;-46
2023/05/01 01:40:38;;;;;;;;;;;;;;;;;;1046701;28;3868;-44
2023/05/01 01:41:30;;;;;;;;;;;;;;;;;;1047643;28;1827;-44
2023/05/01 01:42:01;;;;;;;;;;;;;;;;;;1047298;28;3810;-47
2023/05/01 01:42:52;;;;;;;;;;;;;;;;;;1045540;28;3959;-43
2023/05/01 01:43:23;;;;;;;;;;;;;;;;;;1041836;28;3826;-47
2023/05/01 01:43:59;;;;;;;;;;;;;;;;;;1043571;28;2992;-44
2023/05/01 01:44:33;;;;;;;;;;;;;;;;;;1039289;28;4149;-44
2023/05/01 01:45:09;;;;;;;;;;;;;;;;;;1041719;28;2865;-44
2023/05/01 01:45:40;;;;;;;;;;;;;;;;;;1043216;28;4343;-43
2023/05/01 01:46:11;;;;;;;;;;;;;;;;;;1044725;28;1743;-46
2023/05/01 01:46:41;;;;;;;;;;;;;;;;;;1042229;28;3955;-44
2023/05/01 01:47:13;;;;;;;;;;;;;;;;;;1041629;28;2617;-45
2023/05/01 01:47:44;;;;;;;;;;;;;;;;;;1042092;28;4449;-45
2023/05/01 01:48:20;;;;;;;;;;;;;;;;;;1042687;28;1606;-43
2023/05/01 01:48:51;;;;;;;;;;;;;;;;;;1041381;28;3824;-44
2023/05/01 01:49:25;;;;;;;;;;;;;;;;;;1042937;28;3948;-44
2023/05/01 01:49:56;;;;;;;;;;;;;;;;;;1042660;28;2009;-44
2023/05/01 01:50:27;;;;;;;;;;;;;;;;;;1045161;28;3795;-44
2023/05/01 01:50:58;;;;;;;;;;;;;;;;;;1043250;28;2903;-47
2023/05/01 01:51:29;;;;;;;;;;;;;;;;;;1046300;28;3964;-46
2023/05/01 01:52:01;;;;;;;;;;;;;;;;;;1046868;28;1869;-44
2023/05/01 01:52:32;;;;;;;;;;;;;;;;;;1048272;28;3813;-45
2023/05/01 01:53:03;;;;;;;;;;;;;;;;;;1045599;28;2882;-45
2023/05/01 01:53:35;;;;;;;;;;;;;;;;;;1048136;28;3991;-45
2023/05/01 01:54:06;;;;;;;;;;;;;;;;;;1047442;28;3300;-45
2023/05/01 01:54:39;;;;;;;;;;;;;;;;;;1048108;28;3823;-47
2023/05/01 01:55:11;;;;;;;;;;;;;;;;;;1046648;28;2927;-43
2023/05/01 01:55:42;;;;;;;;;;;;;;;;;;1047361;28;3944;-44
2023/05/01 01:56:13;;;;;;;;;;;;;;;;;;1047452;28;1918;-46
2023/05/01 01:56:45;;;;;;;;;;;;;;;;;;1048144;28;4142;-44
2023/05/01 01:57:17;;;;;;;;;;;;;;;;;;1046701;28;3155;-45
2023/05/01 01:57:49;;;;;;;;;;;;;;;;;;1048059;28;3979;-48
2023/05/01 01:58:20;;;;;;;;;;;;;;;;;;1047321;28;4043;-43
2023/05/01 01:58:51;;;;;;;;;;;;;;;;;;1047398;28;2922;-46
2023/05/01 01:59:22;;;;;;;;;;;;;;;;;;1046464;28;4059;-45
2023/05/01 01:59:52;;;;;;;;;;;;;;;;;;1049892;28;1728;-48
2023/05/01 02:00:23;;;;;;;;;;;;;;;;;;1047371;28;4251;-44
2023/05/01 02:00:54;;;;;;;;;;;;;;;;;;1048139;28;2651;-48
2023/05/01 02:01:24;;;;;;;;;;;;;;;;;;1044937;28;3880;-44
2023/05/01 02:01:55;;;;;;;;;;;;;;;;;;1047071;28;2148;-46
2023/05/01 02:02:26;;;;;;;;;;;;;;;;;;1045866;27;4070;-45
2023/05/01 02:02:57;;;;;;;;;;;;;;;;;;1046206;28;2950;-46
2023/05/01 02:03:29;;;;;;;;;;;;;;;;;;1047736;28;3864;-47
2023/05/01 02:04:00;;;;;;;;;;;;;;;;;;1048453;28;1308;-44
2023/05/01 02:04:31;;;;;;;;;;;;;;;;;;1046990;27;4502;-44
2023/05/01 02:05:01;;;;;;;;;;;;;;;;;;1045132;28;3006;-44
2023/05/01 02:05:33;;;;;;;;;;;;;;;;;;1048138;28;3782;-45
2023/05/01 02:06:04;;;;;;;;;;;;;;;;;;1046144;28;2976;-47
2023/05/01 02:06:35;;;;;;;;;;;;;;;;;;1047577;28;4055;-43
2023/05/01 02:07:07;;;;;;;;;;;;;;;;;;1047823;28;2931;-44
2023/05/01 02:07:39;;;;;;;;;;;;;;;;;;1047477;28;3730;-45
2023/05/01 02:08:10;;;;;;;;;;;;;;;;;;1047346;28;2951;-45
2023/05/01 02:08:41;;;;;;;;;;;;;;;;;;1048042;28;4010;-45
2023/05/01 02:09:14;;;;;;;;;;;;;;;;;;1047382;28;1527;-46
2023/05/01 02:09:45;;;;;;;;;;;;;;;;;;1047373;28;3714;-44
2023/05/01 02:10:16;;;;;;;;;;;;;;;;;;1045573;28;2999;-45
2023/05/01 02:10:47;;;;;;;;;;;;;;;;;;1047490;28;3990;-42
2023/05/01 02:11:18;;;;;;;;;;;;;;;;;;1044367;28;2742;-50
2023/05/01 02:11:50;;;;;;;;;;;;;;;;;;1045347;28;3857;-45
2023/05/01 02:12:22;;;;;;;;;;;;;;;;;;1046008;28;3802;-44
2023/05/01 02:12:53;;;;;;;;;;;;;;;;;;1048190;28;1719;-47
2023/05/01 02:13:26;;;;;;;;;;;;;;;;;;1047259;28;3925;-47
2023/05/01 02:13:58;;;;;;;;;;;;;;;;;;1046365;28;2981;-43
2023/05/01 02:14:29;;;;;;;;;;;;;;;;;;1046486;28;4081;-46
2023/05/01 02:14:59;;;;;;;;;;;;;;;;;;1048658;28;1714;-47
2023/05/01 02:15:30;;;;;;;;;;;;;;;;;;1045304;28;4087;-46
2023/05/01 02:16:02;;;;;;;;;;;;;;;;;;1046266;28;3004;-47
2023/05/01 02:16:33;;;;;;;;;;;;;;;;;;1045788;28;3974;-44
2023/05/01 02:17:03;;;;;;;;;;;;;;;;;;1047173;28;1384;-49
2023/05/01 02:17:35;;;;;;;;;;;;;;;;;;1047503;28;4293;-43
2023/05/01 02:18:05;;;;;;;;;;;;;;;;;;1048614;28;1673;-45
2023/05/01 02:18:37;;;;;;;;;;;;;;;;;;1047648;28;3950;-43
2023/05/01 02:19:07;;;;;;;;;;;;;;;;;;1048463;28;1621;-48
2023/05/01 02:19:41;;;;;;;;;;;;;;;;;;1047461;28;3897;-47
2023/05/01 02:20:12;;;;;;;;;;;;;;;;;;1048258;28;3110;-45
2023/05/01 02:20:43;;;;;;;;;;;;;;;;;;1047358;28;3830;-49
2023/05/01 02:21:13;;;;;;;;;;;;;;;;;;1046358;28;2751;-47
2023/05/01 02:21:44;;;;;;;;;;;;;;;;;;1045628;28;4009;-46
2023/05/01 02:22:17;;;;;;;;;;;;;;;;;;1047135;28;3251;-43
2023/05/01 02:22:48;;;;;;;;;;;;;;;;;;1047553;27;3705;-44
2023/05/01 02:23:18;;;;;;;;;;;;;;;;;;1046811;28;1781;-45
2023/05/01 02:23:48;;;;;;;;;;;;;;;;;;1047005;28;3975;-43
2023/05/01 02:24:21;;;;;;;;;;;;;;;;;;1047274;28;3790;-45
2023/05/01 02:24:53;;;;;;;;;;;;;;;;;;1046339;28;2875;-43
2023/05/01 02:25:24;;;;;;;;;;;;;;;;;;1047671;28;4395;-44
2023/05/01 02:25:55;;;;;;;;;;;;;;;;;;1046677;28;2035;-45
2023/05/01 02:26:27;;;;;;;;;;;;;;;;;;1047588;28;4045;-45
2023/05/01 02:27:05;;;;;;;;;;;;;;;;;;1045366;28;2948;-45
2023/05/01 02:27:37;;;;;;;;;;;;;;;;;;1047833;28;3947;-43
2023/05/01 02:28:09;;;;;;;;;;;;;;;;;;1047527;28;2043;-43
2023/05/01 02:28:40;;;;;;;;;;;;;;;;;;1047055;28;4223;-45
2023/05/01 02:29:10;;;;;;;;;;;;;;;;;;1046300;28;2853;-48
2023/05/01 02:29:41;;;;;;;;;;;;;;;;;;1045194;28;3719;-46
2023/05/01 02:30:12;;;;;;;;;;;;;;;;;;1046541;28;3330;-44
2023/05/01 02:30:43;;;;;;;;;;;;;;;;;;1044696;28;4096;-45
2023/05/01 02:31:14;;;;;;;;;;;;;;;;;;1044133;28;2868;-46
2023/05/01 02:31:44;;;;;;;;;;;;;;;;;;1046820;28;4180;-48
2023/05/01 02:32:14;;;;;;;;;;;;;;;;;;1046082;28;3175;-45
2023/05/01 02:32:45;;;;;;;;;;;;;;;;;;1047428;28;3855;-46
2023/05/01 02:33:15;;;;;;;;;;;;;;;;;;1048073;28;1912;-44
2023/05/01 02:33:45;;;;;;;;;;;;;;;;;;1046215;28;4092;-46
2023/05/01 02:34:16;;;;;;;;;;;;;;;;;;1047714;28;1673;-45
2023/05/01 02:34:46;;;;;;;;;;;;;;;;;;1044639;28;3858;-49
2023/05/01 02:35:16;;;;;;;;;;;;;;;;;;1047623;28;1719;-47
2023/05/01 02:35:47;;;;;;;;;;;;;;;;;;1047001;28;3893;-46
2023/05/01 02:36:17;;;;;;;;;;;;;;;;;;1046581;28;2979;-47
2023/05/01 02:36:48;;;;;;;;;;;;;;;;;;1045953;28;3747;-47
2023/05/01 02:37:18;;;;;;;;;;;;;;;;;;1047866;28;1706;-45
2023/05/01 02:37:49;;;;;;;;;;;;;;;;;;1046747;28;3704;-45
2023/05/01 02:38:19;;;;;;;;;;;;;;;;;;1045456;28;4134;-45
2023/05/01 02:38:50;;;;;;;;;;;;;;;;;;1046453;28;2540;-45
2023/05/01 02:39:20;;;;;;;;;;;;;;;;;;1046037;28;3777;-43
2023/05/01 02:39:51;;;;;;;;;;;;;;;;;;1045601;28;2197;-43
2023/05/01 02:40:21;;;;;;;;;;;;;;;;;;1044015;28;3865;-45
2023/05/01 02:40:54;;;;;;;;;;;;;;;;;;1044497;28;3140;-44
2023/05/01 02:41:26;;;;;;;;;;;;;;;;;;1045724;28;4053;-44
2023/05/01 02:41:57;;;;;;;;;;;;;;;;;;1047194;28;3094;-44
2023/05/01 02:42:28;;;;;;;;;;;;;;;;;;1044835;28;3855;-44
2023/05/01 02:43:00;;;;;;;;;;;;;;;;;;1047435;28;2123;-44
2023/05/01 02:43:31;;;;;;;;;;;;;;;;;;1047272;28;4051;-48
2023/05/01 02:44:03;;;;;;;;;;;;;;;;;;1047363;28;1820;-43
2023/05/01 02:44:47;;;;;;;;;;;;;;;;;;1047226;28;4136;-48
2023/05/01 02:45:19;;;;;;;;;;;;;;;;;;1044586;28;2862;-45
2023/05/01 02:45:50;;;;;;;;;;;;;;;;;;1046237;28;3916;-46
2023/05/01 02:46:23;;;;;;;;;;;;;;;;;;1045470;28;4043;-46
2023/05/01 02:46:54;;;;;;;;;;;;;;;;;;1041198;28;2873;-44
2023/05/01 02:47:26;;;;;;;;;;;;;;;;;;1042353;28;3907;-45
2023/05/01 02:47:58;;;;;;;;;;;;;;;;;;1042883;28;1705;-44
2023/05/01 02:48:29;;;;;;;;;;;;;;;;;;1041752;28;3973;-45
2023/05/01 02:49:01;;;;;;;;;;;;;;;;;;1042369;28;1838;-46
2023/05/01 02:49:32;;;;;;;;;;;;;;;;;;1041704;28;4089;-44
2023/05/01 02:50:03;;;;;;;;;;;;;;;;;;1042998;28;2720;-46
2023/05/01 02:50:35;;;;;;;;;;;;;;;;;;1040110;28;3800;-46
2023/05/01 02:51:05;;;;;;;;;;;;;;;;;;1042313;28;1998;-45
2023/05/01 02:51:37;;;;;;;;;;;;;;;;;;1041333;28;4967;-47
2023/05/01 02:52:07;;;;;;;;;;;;;;;;;;1042491;28;2693;-45
2023/05/01 02:52:38;;;;;;;;;;;;;;;;;;1041726;28;4037;-49
2023/05/01 02:53:10;;;;;;;;;;;;;;;;;;1043253;28;1795;-45
2023/05/01 02:53:41;;;;;;;;;;;;;;;;;;1042876;28;3797;-47
2023/05/01 02:54:11;;;;;;;;;;;;;;;;;;1041007;28;2854;-44
2023/05/01 02:54:44;;;;;;;;;;;;;;;;;;1042827;28;4045;-45
2023/05/01 02:55:14;;;;;;;;;;;;;;;;;;1040824;28;2973;-45
2023/05/01 02:55:45;;;;;;;;;;;;;;;;;;1042047;28;4022;-43
2023/05/01 02:56:15;;;;;;;;;;;;;;;;;;1040868;28;3276;-44
2023/05/01 02:56:45;;;;;;;;;;;;;;;;;;1042937;28;4420;-44
2023/05/01 02:57:16;;;;;;;;;;;;;;;;;;1041183;28;2945;-43
2023/05/01 02:57:49;;;;;;;;;;;;;;;;;;1043216;28;3970;-48
2023/05/01 02:58:19;;;;;;;;;;;;;;;;;;1041561;28;3805;-44
2023/05/01 02:58:49;;;;;;;;;;;;;;;;;;1043519;28;1767;-45
2023/05/01 02:59:20;;;;;;;;;;;;;;;;;;1040084;28;4022;-45
2023/05/01 02:59:50;;;;;;;;;;;;;;;;;;1042368;28;3019;-44
2023/05/01 03:00:21;;;;;;;;;;;;;;;;;;1040636;28;4063;-44
2023/05/01 03:00:51;;;;;;;;;;;;;;;;;;1040359;28;2837;-45
2023/05/01 03:01:21;;;;;;;;;;;;;;;;;;1042654;28;3967;-45
2023/05/01 03:01:52;;;;;;;;;;;;;;;;;;1040161;28;2898;-44
2023/05/01 03:02:22;;;;;;;;;;;;;;;;;;1040794;28;4156;-43
2023/05/01 03:02:52;;;;;;;;;;;;;;;;;;1043267;28;2622;-45
2023/05/01 03:03:22;;;;;;;;;;;;;;;;;;1041270;28;4062;-43
2023/05/01 03:03:53;;;;;;;;;;;;;;;;;;1042906;28;2680;-46
2023/05/01 03:04:23;;;;;;;;;;;;;;;;;;1040468;28;3858;-45
2023/05/01 03:04:53;;;;;;;;;;;;;;;;;;1042032;28;2967;-45
2023/05/01 03:05:24;;;;;;;;;;;;;;;;;;1042224;28;3895;-45
2023/05/01 03:05:54;;;;;;;;;;;;;;;;;;1040922;28;2845;-46
2023/05/01 03:06:26;;;;;;;;;;;;;;;;;;1040495;28;3798;-43
2023/05/01 03:06:56;;;;;;;;;;;;;;;;;;1040807;28;3084;-43
2023/05/01 03:07:33;;;;;;;;;;;;;;;;;;1040442;28;4010;-47
2023/05/01 03:08:04;;;;;;;;;;;;;;;;;;1042858;28;2906;-44
2023/05/01 03:08:35;;;;;;;;;;;;;;;;;;1041415;28;3972;-43
2023/05/01 03:09:06;;;;;;;;;;;;;;;;;;1040455;28;2971;-47
2023/05/01 03:09:37;;;;;;;;;;;;;;;;;;1041339;28;3795;-50
2023/05/01 03:10:07;;;;;;;;;;;;;;;;;;1039735;28;3015;-43
2023/05/01 03:10:43;;;;;;;;;;;;;;;;;;1040773;28;3865;-46
2023/05/01 03:11:14;;;;;;;;;;;;;;;;;;1042260;28;2978;-47
2023/05/01 03:11:44;;;;;;;;;;;;;;;;;;1042554;28;3914;-46
2023/05/01 03:12:15;;;;;;;;;;;;;;;;;;1040609;28;3065;-45
2023/05/01 03:12:45;;;;;;;;;;;;;;;;;;1042478;28;3906;-45
2023/05/01 03:13:15;;;;;;;;;;;;;;;;;;1043315;28;1689;-44
2023/05/01 03:13:46;;;;;;;;;;;;;;;;;;1041310;28;3747;-45
2023/05/01 03:14:16;;;;;;;;;;;;;;;;;;1040256;28;2943;-43
2023/05/01 03:14:47;;;;;;;;;;;;;;;;;;1043446;28;3970;-46
2023/05/01 03:15:17;;;;;;;;;;;;;;;;;;1041546;28;2941;-46
2023/05/01 03:15:47;;;;;;;;;;;;;;;;;;1042935;28;3806;-46
2023/05/01 03:16:18;;;;;;;;;;;;;;;;;;1040968;28;2966;-46
2023/05/01 03:16:48;;;;;;;;;;;;;;;;;;1042208;28;3874;-44
2023/05/01 03:17:18;;;;;;;;;;;;;;;;;;1040595;28;2963;-47
2023/05/01 03:17:49;;;;;;;;;;;;;;;;;;1041037;28;3941;-45
2023/05/01 03:18:19;;;;;;;;;;;;;;;;;;1042096;28;4008;-46
2023/05/01 03:18:49;;;;;;;;;;;;;;;;;;1040134;28;2813;-46
2023/05/01 03:19:20;;;;;;;;;;;;;;;;;;1041936;28;3843;-44
2023/05/01 03:19:50;;;;;;;;;;;;;;;;;;1043062;28;1796;-45
2023/05/01 03:20:21;;;;;;;;;;;;;;;;;;1042395;28;6280;-47
2023/05/01 03:20:52;;;;;;;;;;;;;;;;;;1040660;28;2987;-43
2023/05/01 03:21:22;;;;;;;;;;;;;;;;;;1042283;28;3994;-49
2023/05/01 03:21:52;;;;;;;;;;;;;;;;;;1043410;28;1969;-44
2023/05/01 03:22:23;;;;;;;;;;;;;;;;;;1043212;28;4381;-45
2023/05/01 03:22:53;;;;;;;;;;;;;;;;;;1042337;28;2766;-44
2023/05/01 03:23:23;;;;;;;;;;;;;;;;;;1043177;28;4243;-46
2023/05/01 03:23:54;;;;;;;;;;;;;;;;;;1042952;28;1420;-45
2023/05/01 03:24:24;;;;;;;;;;;;;;;;;;1043084;28;3791;-45
2023/05/01 03:24:54;;;;;;;;;;;;;;;;;;1043132;28;1872;-44
2023/05/01 03:25:24;;;;;;;;;;;;;;;;;;1041499;28;5360;-44
2023/05/01 03:25:56;;;;;;;;;;;;;;;;;;1043160;28;1889;-43
2023/05/01 03:26:27;;;;;;;;;;;;;;;;;;1040842;28;3952;-46
2023/05/01 03:26:57;;;;;;;;;;;;;;;;;;1042977;28;1630;-45
2023/05/01 03:27:29;;;;;;;;;;;;;;;;;;1042117;28;4151;-44
2023/05/01 03:27:59;;;;;;;;;;;;;;;;;;1042839;28;1830;-46
2023/05/01 03:28:30;;;;;;;;;;;;;;;;;;1042175;28;4403;-47
2023/05/01 03:29:00;;;;;;;;;;;;;;;;;;1043291;28;2317;-49
2023/05/01 03:29:30;;;;;;;;;;;;;;;;;;1041220;28;4062;-47
2023/05/01 03:30:01;;;;;;;;;;;;;;;;;;1041995;28;2733;-43
2023/05/01 03:30:32;;;;;;;;;;;;;;;;;;1042238;28;4022;-47
2023/05/01 03:31:02;;;;;;;;;;;;;;;;;;1041977;28;2934;-46
2023/05/01 03:31:32;;;;;;;;;;;;;;;;;;1041755;28;4054;-49
2023/05/01 03:32:03;;;;;;;;;;;;;;;;;;1043228;28;2662;-44
2023/05/01 03:32:33;;;;;;;;;;;;;;;;;;1041119;28;4436;-43
2023/05/01 03:33:04;;;;;;;;;;;;;;;;;;1042574;28;2949;-48
2023/05/01 03:33:34;;;;;;;;;;;;;;;;;;1042511;28;3867;-43
2023/05/01 03:34:04;;;;;;;;;;;;;;;;;;1041752;28;3179;-43
2023/05/01 03:34:35;;;;;;;;;;;;;;;;;;1042357;28;4104;-47
2023/05/01 03:35:06;;;;;;;;;;;;;;;;;;1042605;28;2685;-44
2023/05/01 03:35:36;;;;;;;;;;;;;;;;;;1041060;28;4060;-43
2023/05/01 03:36:09;;;;;;;;;;;;;;;;;;1042830;28;2560;-44
2023/05/01 03:36:40;;;;;;;;;;;;;;;;;;1042488;28;4165;-43
2023/05/01 03:37:10;;;;;;;;;;;;;;;;;;1043456;28;1458;-44
2023/05/01 03:37:41;;;;;;;;;;;;;;;;;;1040329;28;4101;-45
2023/05/01 03:38:11;;;;;;;;;;;;;;;;;;1042530;28;1643;-44
2023/05/01 03:38:41;;;;;;;;;;;;;;;;;;1041449;28;3863;-45
2023/05/01 03:39:11;;;;;;;;;;;;;;;;;;1043529;28;1686;-46
2023/05/01 03:39:42;;;;;;;;;;;;;;;;;;1041643;28;3754;-47
2023/05/01 03:40:12;;;;;;;;;;;;;;;;;;1041689;28;3152;-44
2023/05/01 03:40:43;;;;;;;;;;;;;;;;;;1042115;28;4413;-46
2023/05/01 03:41:13;;;;;;;;;;;;;;;;;;1041643;28;2987;-46
2023/05/01 03:41:43;;;;;;;;;;;;;;;;;;1041152;28;4290;-43
2023/05/01 03:42:14;;;;;;;;;;;;;;;;;;1042753;28;2886;-45
2023/05/01 03:42:44;;;;;;;;;;;;;;;;;;1041733;28;3880;-45
2023/05/01 03:43:14;;;;;;;;;;;;;;;;;;1043086;28;2992;-44
2023/05/01 03:43:45;;;;;;;;;;;;;;;;;;1041124;28;3738;-43
2023/05/01 03:44:15;;;;;;;;;;;;;;;;;;1042233;28;1771;-46
2023/05/01 03:44:45;;;;;;;;;;;;;;;;;;1043070;28;3966;-45